Time;durP1;ratioP1;P1;durP2;ratioP2;P2;SDS_P1;SDS_P2;PMS_P1;PMS_P2;Temp;Humidity;BMP_temperature;BMP_pressure;BME280_temperature;BME280_humidity;BME280_pressure;Samples;Min_cycle;Max_cycle;Signal;HPM_P1;HPM_P2
2022/04/06 00:01:45;;;;;;;6.55;1.08;;;10.30;99.90;;;;;;4974147;28;20035;-78
2022/04/06 00:04:11;;;;;;;7.47;1.38;;;10.30;99.90;;;;;;4974173;28;20394;-79
2022/04/06 00:06:37;;;;;;;0.17;0.17;;;10.30;99.90;;;;;;4974582;28;20034;-78
2022/04/06 00:09:03;;;;;;;0.00;0.00;;;10.30;99.90;;;;;;4991864;28;20041;-76
2022/04/06 00:11:29;;;;;;;0.00;0.00;;;10.30;99.90;;;;;;4974143;28;20054;-76
2022/04/06 00:13:54;;;;;;;0.00;0.00;;;10.30;99.90;;;;;;4973984;28;20026;-76
2022/04/06 00:16:20;;;;;;;0.00;0.00;;;10.30;99.90;;;;;;4974089;28;20114;-76
2022/04/06 00:18:46;;;;;;;0.05;0.00;;;10.30;99.90;;;;;;4973732;28;20426;-78
2022/04/06 00:21:12;;;;;;;0.00;0.00;;;10.30;99.90;;;;;;4973907;28;20078;-78
2022/04/06 00:23:38;;;;;;;0.00;0.00;;;10.30;99.90;;;;;;4973044;28;20026;-76
2022/04/06 00:26:04;;;;;;;1.35;0.10;;;10.20;99.90;;;;;;4974154;28;20065;-78
2022/04/06 00:28:30;;;;;;;14.70;0.50;;;10.20;99.90;;;;;;4972447;28;20063;-76
2022/04/06 00:30:57;;;;;;;0.00;0.00;;;10.30;99.90;;;;;;4987556;28;20399;-78
2022/04/06 00:33:22;;;;;;;0.08;0.08;;;10.20;99.90;;;;;;4973517;28;20023;-75
2022/04/06 00:35:48;;;;;;;0.00;0.00;;;10.30;99.90;;;;;;4974016;28;20038;-76
2022/04/06 00:38:14;;;;;;;0.85;0.60;;;10.20;99.90;;;;;;4973855;28;20101;-75
2022/04/06 00:40:40;;;;;;;0.00;0.00;;;10.30;99.90;;;;;;4974365;28;20062;-76
2022/04/06 00:43:08;;;;;;;0.35;0.35;;;10.30;99.90;;;;;;4972669;28;20031;-78
2022/04/06 00:45:33;;;;;;;0.00;0.00;;;10.20;99.90;;;;;;4973751;28;20498;-76
2022/04/06 00:47:59;;;;;;;0.00;0.00;;;10.20;99.90;;;;;;4979901;28;20034;-76
2022/04/06 00:50:26;;;;;;;0.13;0.13;;;10.20;99.90;;;;;;4977088;28;20031;-78
2022/04/06 00:52:57;;;;;;;0.00;0.00;;;10.20;99.90;;;;;;4976091;28;20019;-75
2022/04/06 00:55:29;;;;;;;0.00;0.00;;;10.20;99.90;;;;;;4977539;28;20175;-78
2022/04/06 00:57:56;;;;;;;1.75;1.27;;;10.20;99.90;;;;;;4977057;28;20468;-76
2022/04/06 01:00:22;;;;;;;0.00;0.00;;;10.20;99.90;;;;;;4977731;28;20045;-76
2022/04/06 01:02:48;;;;;;;0.22;0.22;;;10.20;99.90;;;;;;4977368;28;20490;-76
2022/04/06 01:05:13;;;;;;;0.00;0.00;;;10.20;99.90;;;;;;4977403;28;20062;-78
2022/04/06 01:07:42;;;;;;;0.00;0.00;;;10.20;99.90;;;;;;4978873;28;20058;-78
2022/04/06 01:10:08;;;;;;;0.03;0.03;;;10.20;99.90;;;;;;4977683;28;20031;-76
2022/04/06 01:12:35;;;;;;;0.20;0.20;;;10.30;99.90;;;;;;4976617;28;20520;-78
2022/04/06 01:15:01;;;;;;;0.20;0.20;;;10.30;99.90;;;;;;4977554;28;20099;-78
2022/04/06 01:17:34;;;;;;;0.00;0.00;;;10.30;99.90;;;;;;4977614;28;20447;-78
2022/04/06 01:20:02;;;;;;;0.00;0.00;;;10.30;99.90;;;;;;4977369;28;20090;-76
2022/04/06 01:22:28;;;;;;;0.10;0.10;;;10.30;99.90;;;;;;4977108;28;20026;-78
2022/04/06 01:24:54;;;;;;;0.20;0.20;;;10.30;99.90;;;;;;4977510;28;20038;-76
2022/04/06 01:27:19;;;;;;;0.55;0.55;;;10.30;99.90;;;;;;4977156;28;20054;-76
2022/04/06 01:29:46;;;;;;;0.00;0.00;;;10.30;99.90;;;;;;4976773;28;20035;-76
2022/04/06 01:32:15;;;;;;;0.00;0.00;;;10.30;99.90;;;;;;4977169;28;20030;-76
2022/04/06 01:34:42;;;;;;;0.00;0.00;;;10.30;99.90;;;;;;4975162;28;20497;-76
2022/04/06 01:37:09;;;;;;;0.00;0.00;;;10.40;99.90;;;;;;4975405;28;20022;-76
2022/04/06 01:39:36;;;;;;;0.10;0.10;;;10.30;99.90;;;;;;4976638;28;20033;-78
2022/04/06 01:42:03;;;;;;;0.75;0.73;;;10.30;99.90;;;;;;4977231;28;20363;-78
2022/04/06 01:44:31;;;;;;;0.00;0.00;;;10.40;99.90;;;;;;4976615;28;20023;-76
2022/04/06 01:46:56;;;;;;;0.10;0.10;;;10.30;99.90;;;;;;4976937;28;20390;-76
2022/04/06 01:52:12;;;;;;;0.63;0.55;;;10.30;99.90;;;;;;4976007;28;20458;-78
2022/04/06 01:54:39;;;;;;;0.13;0.13;;;10.30;99.90;;;;;;4959958;28;20031;-76
2022/04/06 01:57:04;;;;;;;0.00;0.00;;;10.30;99.90;;;;;;4976545;28;20045;-76
2022/04/06 01:59:30;;;;;;;3.40;1.23;;;10.40;99.90;;;;;;4975886;28;20034;-76
2022/04/06 02:01:56;;;;;;;0.75;0.45;;;10.40;99.90;;;;;;4976899;28;20030;-77
2022/04/06 02:04:22;;;;;;;0.00;0.00;;;10.40;99.90;;;;;;4975919;28;20109;-76
2022/04/06 02:06:48;;;;;;;0.10;0.10;;;10.30;99.90;;;;;;4976508;28;20518;-76
2022/04/06 02:09:13;;;;;;;0.00;0.00;;;10.40;99.90;;;;;;4975610;28;20054;-78
2022/04/06 02:11:42;;;;;;;0.30;0.25;;;10.30;99.90;;;;;;4982395;28;20482;-76
2022/04/06 02:14:08;;;;;;;0.10;0.10;;;10.40;99.90;;;;;;4975864;28;20509;-78
2022/04/06 02:16:35;;;;;;;0.25;0.25;;;10.40;99.90;;;;;;4975904;28;20544;-76
2022/04/06 02:19:01;;;;;;;0.43;0.43;;;10.30;99.90;;;;;;4975544;28;20025;-76
2022/04/06 02:21:26;;;;;;;0.00;0.00;;;10.40;99.90;;;;;;4975976;28;20023;-76
2022/04/06 02:23:52;;;;;;;0.10;0.10;;;10.40;99.90;;;;;;4975993;28;20034;-77
2022/04/06 02:26:18;;;;;;;0.00;0.00;;;10.40;99.90;;;;;;4975840;28;20457;-76
2022/04/06 02:28:43;;;;;;;0.35;0.22;;;10.40;99.90;;;;;;4976113;28;20033;-76
2022/04/06 02:31:09;;;;;;;0.00;0.00;;;10.40;99.90;;;;;;4979057;28;20030;-78
2022/04/06 02:33:35;;;;;;;0.38;0.38;;;10.40;99.90;;;;;;4974043;28;20467;-76
2022/04/06 02:36:00;;;;;;;0.10;0.10;;;10.40;99.90;;;;;;4976017;28;20101;-78
2022/04/06 02:38:26;;;;;;;0.70;0.70;;;10.40;99.90;;;;;;4975728;28;20106;-78
2022/04/06 02:40:52;;;;;;;0.00;0.00;;;10.40;99.90;;;;;;4976011;28;20027;-78
2022/04/06 02:43:18;;;;;;;0.22;0.10;;;10.40;99.90;;;;;;4975438;28;20486;-76
2022/04/06 02:45:44;;;;;;;0.10;0.10;;;10.40;99.90;;;;;;4974134;28;20027;-76
2022/04/06 02:48:09;;;;;;;0.00;0.00;;;10.40;99.90;;;;;;4975372;28;20460;-78
2022/04/06 02:50:35;;;;;;;0.00;0.00;;;10.40;99.90;;;;;;4979477;28;20046;-78
2022/04/06 02:53:01;;;;;;;1.38;1.27;;;10.40;99.90;;;;;;4974875;28;20398;-78
2022/04/06 02:55:27;;;;;;;1.75;1.20;;;10.40;99.90;;;;;;4973994;28;20471;-78
2022/04/06 02:57:52;;;;;;;5.78;0.57;;;10.40;99.90;;;;;;4975459;28;20106;-78
2022/04/06 03:00:18;;;;;;;2.00;0.45;;;10.40;99.90;;;;;;4975128;28;20103;-79
2022/04/06 03:02:46;;;;;;;1.63;0.35;;;10.40;99.90;;;;;;4975070;28;20023;-78
2022/04/06 03:05:12;;;;;;;0.93;0.50;;;10.40;99.90;;;;;;4975379;28;20029;-78
2022/04/06 03:07:41;;;;;;;0.20;0.10;;;10.40;99.90;;;;;;4973869;28;20037;-76
2022/04/06 03:10:08;;;;;;;0.00;0.00;;;10.40;99.90;;;;;;4978540;28;20039;-78
2022/04/06 03:12:34;;;;;;;2.47;1.17;;;10.40;99.90;;;;;;4974925;28;20033;-78
2022/04/06 03:14:59;;;;;;;0.00;0.00;;;10.40;99.90;;;;;;4975459;28;20031;-78
2022/04/06 03:17:25;;;;;;;0.10;0.10;;;10.40;99.90;;;;;;4974829;28;20022;-78
2022/04/06 03:19:51;;;;;;;0.00;0.00;;;10.40;99.90;;;;;;4974544;28;20122;-78
2022/04/06 03:22:19;;;;;;;0.35;0.35;;;10.40;99.90;;;;;;4973488;28;20113;-78
2022/04/06 03:24:46;;;;;;;0.25;0.25;;;10.40;99.90;;;;;;4975211;28;20061;-78
2022/04/06 03:27:11;;;;;;;0.00;0.00;;;10.40;99.90;;;;;;4975041;28;20030;-78
2022/04/06 03:29:37;;;;;;;0.05;0.05;;;10.40;99.90;;;;;;4983345;28;20121;-78
2022/04/06 03:32:03;;;;;;;0.00;0.00;;;10.40;99.90;;;;;;4975008;28;20383;-77
2022/04/06 03:34:29;;;;;;;0.30;0.30;;;10.40;99.90;;;;;;4973142;28;20026;-78
2022/04/06 03:36:54;;;;;;;1.88;1.17;;;10.40;99.90;;;;;;4968349;28;20019;-78
2022/04/06 03:39:20;;;;;;;1.88;1.20;;;10.40;99.90;;;;;;4974679;28;20031;-78
2022/04/06 03:41:46;;;;;;;0.00;0.00;;;10.40;99.90;;;;;;4975309;28;20030;-78
2022/04/06 03:44:11;;;;;;;0.38;0.38;;;10.40;99.90;;;;;;4975085;28;20057;-76
2022/04/06 03:46:37;;;;;;;1.70;0.20;;;10.40;99.90;;;;;;4976020;28;20077;-76
2022/04/06 03:49:03;;;;;;;3.03;0.90;;;10.40;99.90;;;;;;4974666;28;20081;-78
2022/04/06 03:51:29;;;;;;;0.10;0.10;;;10.40;99.90;;;;;;4974206;28;20026;-78
2022/04/06 03:53:54;;;;;;;0.13;0.13;;;10.40;99.90;;;;;;4973719;28;20114;-76
2022/04/06 03:56:20;;;;;;;1.55;0.52;;;10.40;99.90;;;;;;4974197;28;20133;-76
2022/04/06 03:58:46;;;;;;;0.00;0.00;;;10.40;99.90;;;;;;4974549;28;20426;-76
2022/04/06 04:01:11;;;;;;;0.30;0.30;;;10.50;99.90;;;;;;4975680;28;20398;-75
2022/04/06 04:03:37;;;;;;;1.02;0.98;;;10.40;99.90;;;;;;4973857;28;20053;-76
2022/04/06 04:06:03;;;;;;;0.10;0.10;;;10.50;99.90;;;;;;4974675;28;20094;-76
2022/04/06 04:08:28;;;;;;;0.10;0.00;;;10.50;99.90;;;;;;4974303;28;20022;-76
2022/04/06 04:10:55;;;;;;;28.92;1.17;;;10.50;99.90;;;;;;4974424;28;20106;-75
2022/04/06 04:13:20;;;;;;;0.38;0.38;;;10.50;99.90;;;;;;4973644;28;20038;-76
2022/04/06 04:15:46;;;;;;;0.20;0.20;;;10.50;99.90;;;;;;4973993;28;20027;-75
2022/04/06 04:18:11;;;;;;;0.03;0.03;;;10.50;99.90;;;;;;4982693;28;20406;-78
2022/04/06 04:20:37;;;;;;;0.00;0.00;;;10.50;99.90;;;;;;4974295;28;20034;-76
2022/04/06 04:23:03;;;;;;;0.28;0.28;;;10.50;99.90;;;;;;4972580;28;20027;-76
2022/04/06 04:25:29;;;;;;;0.82;0.17;;;10.50;99.90;;;;;;4974282;28;20066;-76
2022/04/06 04:27:54;;;;;;;2.40;1.67;;;10.50;99.90;;;;;;4973075;28;20030;-78
2022/04/06 04:30:21;;;;;;;0.80;0.80;;;10.50;99.90;;;;;;4973978;28;20585;-78
2022/04/06 04:32:47;;;;;;;0.68;0.35;;;10.50;99.90;;;;;;4973966;28;20474;-78
2022/04/06 04:35:13;;;;;;;5.53;0.98;;;10.60;99.90;;;;;;4975476;28;20026;-76
2022/04/06 04:37:39;;;;;;;0.00;0.00;;;10.60;99.90;;;;;;4973680;28;20026;-78
2022/04/06 04:40:05;;;;;;;0.00;0.00;;;10.50;99.90;;;;;;4973899;28;20034;-76
2022/04/06 04:42:31;;;;;;;13.55;0.82;;;10.60;99.90;;;;;;4972592;28;20058;-75
2022/04/06 04:44:57;;;;;;;0.10;0.10;;;10.60;99.90;;;;;;4974048;28;20027;-78
2022/04/06 04:47:22;;;;;;;0.00;0.00;;;10.60;99.90;;;;;;4973953;28;20475;-77
2022/04/06 04:49:48;;;;;;;1.45;0.55;;;10.60;99.90;;;;;;4973672;28;20098;-75
2022/04/06 04:52:14;;;;;;;0.30;0.30;;;10.60;99.90;;;;;;4978449;28;20030;-75
2022/04/06 04:54:39;;;;;;;0.47;0.43;;;10.60;99.90;;;;;;4972292;28;20085;-78
2022/04/06 04:57:05;;;;;;;3.67;1.75;;;10.60;99.90;;;;;;4973459;28;20055;-77
2022/04/06 04:59:31;;;;;;;4.25;1.25;;;10.60;99.90;;;;;;4973693;28;20557;-77
2022/04/06 05:01:57;;;;;;;0.10;0.10;;;10.60;99.90;;;;;;4972633;28;20421;-76
2022/04/06 05:04:23;;;;;;;0.00;0.00;;;10.60;99.90;;;;;;4972800;28;20022;-75
2022/04/06 05:06:48;;;;;;;0.50;0.50;;;10.60;99.90;;;;;;4973788;28;20035;-78
2022/04/06 05:09:14;;;;;;;0.65;0.65;;;10.60;99.90;;;;;;4973737;28;20406;-76
2022/04/06 05:11:40;;;;;;;0.00;0.00;;;10.60;99.90;;;;;;4971790;28;20027;-78
2022/04/06 05:14:06;;;;;;;0.40;0.40;;;10.60;99.90;;;;;;4973516;28;20030;-76
2022/04/06 05:16:31;;;;;;;1.25;1.15;;;10.60;99.90;;;;;;4973539;28;20023;-76
2022/04/06 05:18:58;;;;;;;2.30;1.35;;;10.60;99.90;;;;;;4973274;28;20034;-78
2022/04/06 05:21:24;;;;;;;1.38;1.27;;;10.60;99.90;;;;;;4972045;28;20023;-76
2022/04/06 05:23:50;;;;;;;3.88;2.22;;;10.60;99.90;;;;;;4973437;28;20125;-78
2022/04/06 05:26:16;;;;;;;0.65;0.40;;;10.60;99.90;;;;;;4973407;28;20034;-76
2022/04/06 05:28:42;;;;;;;0.70;0.52;;;10.60;99.90;;;;;;4973163;28;20030;-79
2022/04/06 05:31:07;;;;;;;0.10;0.10;;;10.60;99.90;;;;;;4970788;28;20621;-76
2022/04/06 05:33:33;;;;;;;0.10;0.10;;;10.60;99.90;;;;;;4971318;28;20039;-76
2022/04/06 05:35:59;;;;;;;2.53;1.48;;;10.60;99.90;;;;;;4976928;28;20050;-78
2022/04/06 05:38:25;;;;;;;0.10;0.10;;;10.60;99.90;;;;;;4975373;28;20486;-78
2022/04/06 05:40:51;;;;;;;0.35;0.35;;;10.60;99.90;;;;;;4970798;28;20122;-76
2022/04/06 05:43:17;;;;;;;0.00;0.00;;;10.60;99.90;;;;;;4971171;28;20031;-78
2022/04/06 05:45:43;;;;;;;0.00;0.00;;;10.60;99.90;;;;;;4974776;28;20038;-76
2022/04/06 05:48:09;;;;;;;0.10;0.10;;;10.60;99.90;;;;;;4975767;28;20027;-78
2022/04/06 05:50:35;;;;;;;0.65;0.65;;;10.60;99.90;;;;;;4974116;28;20026;-78
2022/04/06 05:53:00;;;;;;;0.00;0.00;;;10.60;99.90;;;;;;4975173;28;20035;-78
2022/04/06 05:55:26;;;;;;;0.93;0.60;;;10.60;99.90;;;;;;4974117;28;20502;-78
2022/04/06 05:57:52;;;;;;;3.10;1.55;;;10.60;99.90;;;;;;4975779;28;20491;-76
2022/04/06 06:00:18;;;;;;;1.15;0.60;;;10.60;99.90;;;;;;4976051;28;20031;-78
2022/04/06 06:02:45;;;;;;;0.10;0.10;;;10.60;99.90;;;;;;4975147;28;20039;-78
2022/04/06 06:05:10;;;;;;;0.55;0.52;;;10.60;99.90;;;;;;4975484;28;20037;-76
2022/04/06 06:07:36;;;;;;;1.25;0.43;;;10.60;99.90;;;;;;4975796;28;20031;-76
2022/04/06 06:10:03;;;;;;;0.22;0.15;;;10.60;99.90;;;;;;4969345;28;20494;-76
2022/04/06 06:12:29;;;;;;;0.10;0.10;;;10.60;99.90;;;;;;4970374;28;20121;-78
2022/04/06 06:14:55;;;;;;;0.52;0.52;;;10.60;99.90;;;;;;4973122;28;20042;-79
2022/04/06 06:17:21;;;;;;;2.38;2.17;;;10.60;99.90;;;;;;4975027;28;20045;-76
2022/04/06 06:19:46;;;;;;;0.00;0.00;;;10.60;99.90;;;;;;4973767;28;20399;-75
2022/04/06 06:22:12;;;;;;;0.00;0.00;;;10.60;99.90;;;;;;4971584;28;20034;-78
2022/04/06 06:24:38;;;;;;;0.93;0.63;;;10.70;99.90;;;;;;4971475;28;20034;-76
2022/04/06 06:27:04;;;;;;;0.52;0.40;;;10.70;99.90;;;;;;4989079;28;20030;-78
2022/04/06 06:29:31;;;;;;;0.10;0.10;;;10.70;99.90;;;;;;4971340;28;20042;-78
2022/04/06 06:31:56;;;;;;;0.20;0.15;;;10.70;99.90;;;;;;4978194;28;20073;-75
2022/04/06 06:34:22;;;;;;;0.30;0.10;;;10.70;99.90;;;;;;4986530;28;20030;-75
2022/04/06 06:36:48;;;;;;;0.00;0.00;;;10.70;99.90;;;;;;4973930;28;20034;-76
2022/04/06 06:39:14;;;;;;;0.80;0.75;;;10.70;99.90;;;;;;4966317;28;20015;-75
2022/04/06 06:41:41;;;;;;;0.00;0.00;;;10.80;99.90;;;;;;4975351;28;20054;-75
2022/04/06 06:44:07;;;;;;;0.47;0.47;;;10.70;99.90;;;;;;4978751;28;20041;-75
2022/04/06 06:46:33;;;;;;;1.55;1.10;;;10.70;99.90;;;;;;4971860;28;20409;-75
2022/04/06 06:49:04;;;;;;;0.10;0.10;;;10.80;99.90;;;;;;4974055;28;20373;-75
2022/04/06 06:51:31;;;;;;;0.35;0.35;;;10.80;99.90;;;;;;4976617;28;20039;-75
2022/04/06 06:53:58;;;;;;;0.08;0.08;;;10.80;99.90;;;;;;4969298;28;20046;-75
2022/04/06 06:56:25;;;;;;;0.10;0.10;;;10.90;99.90;;;;;;4969470;28;20043;-75
2022/04/06 06:58:50;;;;;;;0.10;0.10;;;10.80;99.90;;;;;;4972841;28;20055;-75
2022/04/06 07:01:16;;;;;;;1.45;1.35;;;10.90;99.90;;;;;;4977676;28;20090;-75
2022/04/06 07:03:42;;;;;;;0.05;0.05;;;11.00;99.90;;;;;;4972694;28;20382;-75
2022/04/06 07:06:08;;;;;;;0.03;0.03;;;11.00;99.90;;;;;;4972450;28;20034;-75
2022/04/06 07:08:33;;;;;;;0.00;0.00;;;11.00;99.90;;;;;;4971990;28;20041;-75
2022/04/06 07:10:59;;;;;;;0.10;0.10;;;11.00;99.90;;;;;;4979831;28;20022;-75
2022/04/06 07:13:25;;;;;;;0.00;0.00;;;11.00;99.90;;;;;;4964967;28;20073;-75
2022/04/06 07:15:51;;;;;;;0.52;0.30;;;11.00;99.90;;;;;;4978151;28;20038;-75
2022/04/06 07:18:18;;;;;;;0.00;0.00;;;11.00;99.90;;;;;;4976528;28;20098;-74
2022/04/06 07:20:44;;;;;;;0.00;0.00;;;11.10;99.90;;;;;;4978237;28;20730;-75
2022/04/06 07:23:10;;;;;;;0.00;0.00;;;11.20;99.90;;;;;;4973652;28;20161;-76
2022/04/06 07:25:36;;;;;;;2.60;0.90;;;11.30;99.90;;;;;;4976654;28;20038;-75
2022/04/06 07:28:02;;;;;;;0.00;0.00;;;11.30;99.90;;;;;;4971609;28;20027;-75
2022/04/06 07:30:29;;;;;;;0.52;0.52;;;11.30;99.90;;;;;;4969385;28;20085;-75
2022/04/06 07:32:56;;;;;;;0.10;0.10;;;11.30;99.90;;;;;;4973260;28;20548;-75
2022/04/06 07:35:22;;;;;;;0.32;0.32;;;11.30;99.90;;;;;;4977941;28;20129;-75
2022/04/06 07:37:50;;;;;;;0.00;0.00;;;11.30;99.90;;;;;;4977140;28;20552;-75
2022/04/06 07:40:23;;;;;;;0.38;0.38;;;11.40;99.90;;;;;;4971982;28;20041;-75
2022/04/06 07:42:49;;;;;;;3.53;1.10;;;11.40;99.90;;;;;;4964409;28;20035;-75
2022/04/06 07:45:17;;;;;;;0.10;0.10;;;11.40;99.90;;;;;;4976980;28;20492;-75
2022/04/06 07:47:44;;;;;;;0.20;0.20;;;11.40;99.90;;;;;;4972936;28;20454;-75
2022/04/06 07:50:10;;;;;;;0.00;0.00;;;11.50;99.90;;;;;;4975345;28;20479;-75
2022/04/06 07:52:36;;;;;;;0.20;0.20;;;11.60;99.90;;;;;;4971340;28;20099;-75
2022/04/06 07:55:07;;;;;;;0.75;0.75;;;11.60;99.90;;;;;;4979963;28;20149;-75
2022/04/06 07:57:33;;;;;;;0.00;0.00;;;11.60;99.90;;;;;;4972543;28;20035;-75
2022/04/06 08:00:05;;;;;;;0.00;0.00;;;11.60;99.90;;;;;;4972825;28;20500;-75
2022/04/06 08:02:31;;;;;;;0.00;0.00;;;11.60;99.90;;;;;;4968425;28;20510;-75
2022/04/06 08:04:57;;;;;;;0.38;0.38;;;11.60;99.90;;;;;;4971875;28;20032;-75
2022/04/06 08:07:22;;;;;;;0.00;0.00;;;11.70;99.90;;;;;;4976064;28;20413;-75
2022/04/06 08:09:48;;;;;;;0.00;0.00;;;11.70;99.90;;;;;;4971661;28;20030;-75
2022/04/06 08:12:14;;;;;;;0.38;0.38;;;11.70;99.90;;;;;;4971935;28;20023;-75
2022/04/06 08:14:39;;;;;;;0.00;0.00;;;11.80;99.90;;;;;;4973809;28;20050;-75
2022/04/06 08:17:05;;;;;;;0.10;0.03;;;11.90;99.90;;;;;;4971079;28;20092;-75
2022/04/06 08:19:31;;;;;;;0.00;0.00;;;11.90;99.90;;;;;;4972520;28;20497;-75
2022/04/06 08:21:56;;;;;;;1.55;0.22;;;11.90;99.90;;;;;;4968911;28;20029;-75
2022/04/06 08:24:22;;;;;;;0.00;0.00;;;11.90;99.90;;;;;;4968981;28;20039;-75
2022/04/06 08:26:48;;;;;;;0.00;0.00;;;12.00;99.90;;;;;;4976282;28;20076;-75
2022/04/06 08:29:13;;;;;;;1.85;0.35;;;11.90;99.90;;;;;;4971134;28;20029;-75
2022/04/06 08:31:39;;;;;;;0.00;0.00;;;11.70;99.90;;;;;;4970072;28;20034;-75
2022/04/06 08:34:06;;;;;;;0.00;0.00;;;11.60;99.90;;;;;;4970127;28;20035;-75
2022/04/06 08:36:32;;;;;;;0.00;0.00;;;11.50;99.90;;;;;;4971842;28;20075;-75
2022/04/06 08:38:59;;;;;;;0.00;0.00;;;11.50;99.90;;;;;;4975762;28;20598;-75
2022/04/06 08:41:26;;;;;;;0.00;0.00;;;11.60;99.90;;;;;;4969612;28;20027;-75
2022/04/06 08:43:58;;;;;;;0.00;0.00;;;11.80;99.90;;;;;;4971346;28;20041;-75
2022/04/06 08:46:25;;;;;;;0.00;0.00;;;11.70;99.90;;;;;;4967661;28;20027;-75
2022/04/06 08:48:51;;;;;;;0.00;0.00;;;11.70;99.90;;;;;;4965090;28;20067;-75
2022/04/06 08:51:18;;;;;;;0.00;0.00;;;11.70;99.90;;;;;;4974436;28;20026;-75
2022/04/06 08:53:46;;;;;;;0.43;0.20;;;12.00;99.90;;;;;;4967796;28;20031;-75
2022/04/06 08:56:12;;;;;;;0.00;0.00;;;12.10;99.90;;;;;;4970189;28;20041;-75
2022/04/06 08:58:39;;;;;;;0.00;0.00;;;12.10;99.90;;;;;;4976565;28;20498;-75
2022/04/06 09:01:05;;;;;;;0.10;0.10;;;12.00;99.90;;;;;;4968154;28;20118;-75
2022/04/06 09:03:31;;;;;;;0.00;0.00;;;12.00;99.90;;;;;;4968227;28;20055;-75
2022/04/06 09:06:25;;;;;;;0.47;0.47;;;12.00;99.90;;;;;;4972798;28;20030;-75
2022/04/06 09:08:50;;;;;;;;;;;12.00;99.90;;;;;;4983438;28;20062;-75
2022/04/06 09:11:19;;;;;;;0.70;0.20;;;12.10;99.90;;;;;;4988780;28;20374;-75
2022/04/06 09:13:48;;;;;;;0.10;0.10;;;12.20;99.90;;;;;;4968860;28;20034;-75
2022/04/06 09:16:18;;;;;;;0.00;0.00;;;12.50;99.90;;;;;;4977457;28;21674;-75
2022/04/06 09:18:45;;;;;;;0.00;0.00;;;12.60;99.90;;;;;;4984781;28;20080;-75
2022/04/06 09:21:16;;;;;;;0.00;0.00;;;12.50;99.90;;;;;;4985457;28;20122;-75
2022/04/06 09:23:51;;;;;;;0.10;0.10;;;12.30;99.90;;;;;;4976960;28;20053;-75
2022/04/06 09:26:21;;;;;;;0.32;0.32;;;12.10;99.90;;;;;;4971246;28;20102;-75
2022/04/06 09:28:49;;;;;;;0.00;0.00;;;12.00;99.90;;;;;;4977750;28;20041;-75
2022/04/06 09:31:19;;;;;;;0.28;0.13;;;12.00;99.90;;;;;;4977844;28;20065;-75
2022/04/06 09:34:02;;;;;;;0.00;0.00;;;11.90;99.90;;;;;;4976491;28;20031;-75
2022/04/06 09:36:30;;;;;;;0.25;0.08;;;11.90;99.90;;;;;;4975700;28;20081;-74
2022/04/06 09:38:56;;;;;;;0.00;0.00;;;11.90;99.90;;;;;;4972852;28;20039;-74
2022/04/06 09:41:21;;;;;;;0.00;0.00;;;12.10;99.90;;;;;;4975369;28;20040;-74
2022/04/06 09:43:48;;;;;;;0.00;0.00;;;12.20;99.90;;;;;;4978741;28;20457;-75
2022/04/06 09:49:10;;;;;;;0.25;0.25;;;12.00;99.90;;;;;;4973776;28;20528;-72
2022/04/06 09:51:38;;;;;;;14.15;1.00;;;11.70;99.90;;;;;;4973297;28;20033;-75
2022/04/06 09:54:05;;;;;;;0.00;0.00;;;11.80;99.90;;;;;;4980654;28;20153;-75
2022/04/06 09:56:32;;;;;;;6.03;1.80;;;11.90;99.90;;;;;;4970213;28;20035;-75
2022/04/06 09:58:59;;;;;;;1.10;1.05;;;11.80;99.90;;;;;;4973042;28;20045;-75
2022/04/06 10:01:36;;;;;;;0.00;0.00;;;11.90;99.90;;;;;;4970864;28;20053;-74
2022/04/06 10:04:03;;;;;;;0.20;0.20;;;11.80;99.90;;;;;;4972629;28;20026;-73
2022/04/06 10:06:40;;;;;;;0.00;0.00;;;11.70;99.90;;;;;;4975675;28;20114;-76
2022/04/06 10:09:08;;;;;;;0.00;0.00;;;11.80;99.90;;;;;;4977885;28;20035;-77
2022/04/06 10:11:35;;;;;;;0.00;0.00;;;12.00;99.90;;;;;;4975374;28;20092;-76
2022/04/06 10:14:03;;;;;;;0.32;0.08;;;12.00;99.90;;;;;;4973613;28;20359;-76
2022/04/06 10:16:29;;;;;;;0.00;0.00;;;12.10;99.90;;;;;;4977719;28;20030;-76
2022/04/06 10:18:57;;;;;;;0.00;0.00;;;11.90;99.90;;;;;;4975066;28;20034;-76
2022/04/06 10:21:35;;;;;;;0.00;0.00;;;11.70;99.90;;;;;;4975268;28;20027;-76
2022/04/06 10:24:10;;;;;;;0.77;0.73;;;11.80;99.90;;;;;;4992844;28;20064;-76
2022/04/06 10:27:11;;;;;;;2.97;1.20;;;12.10;99.90;;;;;;4964969;28;20038;-76
2022/04/06 10:30:11;;;;;;;0.00;0.00;;;12.10;99.90;;;;;;4966780;28;20415;-75
2022/04/06 10:32:37;;;;;;;0.00;0.00;;;12.40;99.90;;;;;;4979249;28;20033;-75
2022/04/06 10:35:31;;;;;;;0.30;0.00;;;12.50;99.90;;;;;;4981078;28;20030;-75
2022/04/06 10:37:56;;;;;;;0.00;0.00;;;12.60;99.90;;;;;;4974023;28;20034;-75
2022/04/06 10:40:23;;;;;;;2.13;1.10;;;12.60;99.90;;;;;;4976598;28;20034;-74
2022/04/06 10:42:49;;;;;;;0.10;0.10;;;12.40;99.90;;;;;;4977080;28;20089;-74
2022/04/06 10:45:27;;;;;;;0.00;0.00;;;12.60;99.90;;;;;;4978421;28;20037;-74
2022/04/06 10:48:13;;;;;;;0.00;0.00;;;13.00;99.90;;;;;;4974790;28;20061;-71
2022/04/06 10:50:39;;;;;;;0.60;0.55;;;13.20;99.90;;;;;;4976641;28;20022;-73
2022/04/06 10:53:27;;;;;;;0.00;0.00;;;13.60;99.90;;;;;;4973241;28;20094;-74
2022/04/06 10:56:12;;;;;;;0.10;0.10;;;13.70;99.90;;;;;;4971343;28;20782;-74
2022/04/06 10:58:55;;;;;;;0.00;0.00;;;13.90;99.90;;;;;;4974927;28;20023;-74
2022/04/06 11:01:26;;;;;;;1.45;0.90;;;13.90;99.90;;;;;;4971777;28;20049;-74
2022/04/06 11:03:57;;;;;;;0.35;0.13;;;13.50;99.90;;;;;;4972072;28;20027;-72
2022/04/06 11:06:41;;;;;;;0.10;0.00;;;12.90;99.90;;;;;;4973261;28;20570;-76
2022/04/06 11:12:22;;;;;;;0.38;0.38;;;12.80;99.90;;;;;;4970394;28;20030;-77
2022/04/06 11:14:59;;;;;;;0.13;0.10;;;13.50;99.90;;;;;;4970683;28;20037;-76
2022/04/06 11:17:38;;;;;;;0.52;0.32;;;13.80;99.90;;;;;;4987420;28;20036;-75
2022/04/06 11:20:17;;;;;;;0.30;0.30;;;14.10;99.90;;;;;;4970256;28;20490;-74
2022/04/06 11:22:53;;;;;;;0.00;0.00;;;13.70;99.90;;;;;;4971450;28;20383;-74
2022/04/06 11:25:24;;;;;;;0.00;0.00;;;13.70;99.90;;;;;;4971534;28;20079;-74
2022/04/06 11:27:50;;;;;;;0.10;0.10;;;14.10;99.90;;;;;;4970645;28;20059;-74
2022/04/06 11:30:21;;;;;;;0.00;0.00;;;14.50;99.90;;;;;;4971264;28;20038;-75
2022/04/06 11:32:55;;;;;;;0.00;0.00;;;14.40;99.90;;;;;;4971366;28;20521;-76
2022/04/06 11:35:26;;;;;;;0.00;0.00;;;14.30;99.90;;;;;;4972851;28;20046;-77
2022/04/06 11:37:52;;;;;;;0.10;0.10;;;14.70;99.90;;;;;;4971717;28;20061;-77
2022/04/06 11:40:21;;;;;;;0.00;0.00;;;14.70;99.90;;;;;;4971510;28;20452;-75
2022/04/06 11:42:51;;;;;;;0.00;0.00;;;14.60;99.90;;;;;;4972674;28;20035;-77
2022/04/06 11:45:20;;;;;;;0.00;0.00;;;15.00;99.90;;;;;;4968180;28;20062;-72
2022/04/06 11:47:53;;;;;;;0.00;0.00;;;14.40;99.90;;;;;;4972925;28;20090;-74
2022/04/06 11:50:18;;;;;;;;;;;14.40;99.90;;;;;;4978655;28;20034;-73
2022/04/06 11:52:44;;;;;;;2.17;0.10;;;14.50;99.90;;;;;;4969574;28;19914;-74
2022/04/06 11:55:09;;;;;;;0.00;0.00;;;14.70;99.90;;;;;;4990439;28;20034;-73
2022/04/06 11:57:45;;;;;;;0.00;0.00;;;15.10;99.90;;;;;;4977798;28;20041;-73
2022/04/06 12:00:13;;;;;;;0.00;0.00;;;14.90;99.90;;;;;;4973113;28;20072;-71
2022/04/06 12:02:52;;;;;;;0.00;0.00;;;14.90;99.90;;;;;;4969224;28;20088;-72
2022/04/06 12:05:19;;;;;;;0.00;0.00;;;14.90;99.90;;;;;;4973672;28;20037;-72
2022/04/06 12:07:46;;;;;;;0.10;0.00;;;14.40;99.90;;;;;;4981340;28;20061;-74
2022/04/06 12:10:13;;;;;;;0.20;0.20;;;14.30;99.90;;;;;;4990867;28;20070;-72
2022/04/06 12:12:40;;;;;;;0.00;0.00;;;14.60;99.90;;;;;;4995728;28;20045;-72
2022/04/06 12:15:07;;;;;;;3.92;0.63;;;14.20;99.90;;;;;;4999045;28;20031;-73
2022/04/06 12:17:38;;;;;;;0.00;0.00;;;13.80;99.90;;;;;;4981785;28;20034;-72
2022/04/06 12:20:26;;;;;;;0.00;0.00;;;13.50;99.90;;;;;;4975230;28;20018;-73
2022/04/06 12:23:05;;;;;;;0.55;0.10;;;13.10;99.90;;;;;;4976011;28;20041;-72
2022/04/06 12:25:33;;;;;;;0.00;0.00;;;12.60;99.90;;;;;;4974779;28;20038;-73
2022/04/06 12:28:12;;;;;;;0.00;0.00;;;12.00;99.90;;;;;;4976475;28;20879;-71
2022/04/06 12:31:08;;;;;;;0.00;0.00;;;11.50;99.90;;;;;;4969922;28;20027;-70
2022/04/06 12:33:41;;;;;;;0.00;0.00;;;11.30;99.90;;;;;;4964683;28;20043;-71
2022/04/06 12:36:11;;;;;;;0.00;0.00;;;11.50;99.90;;;;;;4974585;28;20073;-71
2022/04/06 12:38:39;;;;;;;0.03;0.03;;;11.90;99.90;;;;;;4970861;28;20058;-74
2022/04/06 12:41:12;;;;;;;0.00;0.00;;;12.30;99.90;;;;;;4971068;28;20101;-74
2022/04/06 12:43:40;;;;;;;0.00;0.00;;;12.30;99.90;;;;;;4972214;28;20134;-76
2022/04/06 12:46:06;;;;;;;0.00;0.00;;;12.90;99.90;;;;;;4975796;28;20034;-76
2022/04/06 12:48:32;;;;;;;0.00;0.00;;;12.90;99.90;;;;;;4975680;28;20054;-76
2022/04/06 12:50:57;;;;;;;0.10;0.10;;;13.30;99.90;;;;;;4968650;28;20030;-76
2022/04/06 12:53:23;;;;;;;0.00;0.00;;;13.80;99.90;;;;;;4973266;28;20548;-74
2022/04/06 12:56:23;;;;;;;0.00;0.00;;;14.00;99.90;;;;;;4974357;28;20379;-73
2022/04/06 12:59:08;;;;;;;0.00;0.00;;;13.50;99.90;;;;;;4969517;28;20045;-74
2022/04/06 13:01:42;;;;;;;7.40;1.02;;;13.50;99.90;;;;;;4972540;28;20044;-74